Time;durP1;ratioP1;P1;durP2;ratioP2;P2;SDS_P1;SDS_P2;PMS_P1;PMS_P2;Temp;Humidity;BMP_temperature;BMP_pressure;BME280_temperature;BME280_humidity;BME280_pressure;Samples;Min_cycle;Max_cycle;Signal;HPM_P1;HPM_P2
2021/12/12 00:00:30;;;;;;;24.50;13.07;;;;;;;;;;717931;189;918908;-68
2021/12/12 00:02:58;;;;;;;23.90;14.87;;;;;;;;;;726003;189;919461;-68
2021/12/12 00:05:22;;;;;;;20.70;12.77;;;;;;;;;;723754;189;918445;-68
2021/12/12 00:07:48;;;;;;;22.23;13.23;;;;;;;;;;727733;186;931471;-68
2021/12/12 00:10:14;;;;;;;23.27;14.20;;;;;;;;;;727150;189;919243;-67
2021/12/12 00:12:39;;;;;;;25.10;13.60;;;;;;;;;;728545;189;919264;-67
2021/12/12 00:15:05;;;;;;;22.50;13.77;;;;;;;;;;715029;193;920474;-67
2021/12/12 00:17:31;;;;;;;21.00;12.80;;;;;;;;;;702563;197;918178;-66
2021/12/12 00:19:57;;;;;;;30.95;16.48;;;;;;;;;;724855;191;919600;-68
2021/12/12 00:22:23;;;;;;;24.67;14.57;;;;;;;;;;730576;189;920851;-67
2021/12/12 00:24:49;;;;;;;23.23;14.43;;;;;;;;;;717728;193;918937;-68
2021/12/12 00:27:15;;;;;;;23.63;14.53;;;;;;;;;;722902;190;919884;-67
2021/12/12 00:29:40;;;;;;;27.27;14.90;;;;;;;;;;727806;189;920727;-68
2021/12/12 00:32:06;;;;;;;21.00;13.48;;;;;;;;;;735529;186;919001;-67
2021/12/12 00:34:33;;;;;;;19.80;12.60;;;;;;;;;;735554;189;915945;-68
2021/12/12 00:36:58;;;;;;;24.67;15.47;;;;;;;;;;723413;189;916233;-67
2021/12/12 00:39:24;;;;;;;26.80;14.60;;;;;;;;;;726855;189;920658;-68
2021/12/12 00:42:05;;;;;;;24.73;14.50;;;;;;;;;;724603;189;919441;-67
2021/12/12 00:44:31;;;;;;;31.67;17.47;;;;;;;;;;719393;189;918381;-67
2021/12/12 00:46:56;;;;;;;28.10;16.27;;;;;;;;;;728357;186;919631;-67
2021/12/12 00:49:22;;;;;;;26.63;15.83;;;;;;;;;;720557;189;919438;-68
2021/12/12 00:51:48;;;;;;;26.83;15.37;;;;;;;;;;721906;189;919008;-67
2021/12/12 00:54:14;;;;;;;32.00;17.13;;;;;;;;;;726556;189;919707;-68
2021/12/12 00:56:40;;;;;;;26.00;16.00;;;;;;;;;;727574;189;918199;-67
2021/12/12 00:59:06;;;;;;;33.00;18.00;;;;;;;;;;727029;189;918687;-67
2021/12/12 01:01:33;;;;;;;25.50;15.97;;;;;;;;;;732549;189;912060;-67
2021/12/12 01:03:59;;;;;;;37.03;20.70;;;;;;;;;;720364;189;918576;-68
2021/12/12 01:06:24;;;;;;;30.20;18.33;;;;;;;;;;721930;189;919020;-68
2021/12/12 01:08:50;;;;;;;37.25;17.98;;;;;;;;;;726370;189;920164;-67
2021/12/12 01:11:16;;;;;;;29.73;18.10;;;;;;;;;;736735;186;916593;-68
2021/12/12 01:13:42;;;;;;;24.90;16.30;;;;;;;;;;730488;189;920449;-68
2021/12/12 01:16:09;;;;;;;34.03;19.40;;;;;;;;;;717379;190;916372;-66
2021/12/12 01:18:35;;;;;;;34.13;21.17;;;;;;;;;;723552;190;916373;-67
2021/12/12 01:21:00;;;;;;;32.47;21.67;;;;;;;;;;726776;186;919387;-67
2021/12/12 01:23:26;;;;;;;34.40;19.50;;;;;;;;;;730022;189;919540;-68
2021/12/12 01:25:51;;;;;;;32.20;17.97;;;;;;;;;;732361;189;919339;-67
2021/12/12 01:28:17;;;;;;;37.75;19.30;;;;;;;;;;721494;189;918869;-67
2021/12/12 01:30:43;;;;;;;38.87;20.00;;;;;;;;;;727430;188;919389;-68
2021/12/12 01:33:10;;;;;;;30.90;19.40;;;;;;;;;;727068;190;918823;-66
2021/12/12 01:35:35;;;;;;;31.10;19.20;;;;;;;;;;724304;191;919374;-67
2021/12/12 01:40:33;;;;;;;47.30;21.65;;;;;;;;;;727042;189;919514;-67
2021/12/12 01:42:58;;;;;;;41.10;23.17;;;;;;;;;;738209;186;919677;-67
2021/12/12 01:45:25;;;;;;;42.80;25.17;;;;;;;;;;723338;189;920304;-67
2021/12/12 01:47:52;;;;;;;46.07;25.07;;;;;;;;;;720740;189;920032;-67
2021/12/12 01:50:18;;;;;;;46.47;25.87;;;;;;;;;;722488;189;918723;-66
2021/12/12 01:52:45;;;;;;;42.53;25.30;;;;;;;;;;726129;189;919035;-67
2021/12/12 01:55:12;;;;;;;53.30;28.25;;;;;;;;;;728858;189;919517;-67
2021/12/12 01:57:37;;;;;;;42.60;28.00;;;;;;;;;;720009;189;1021652;-67
2021/12/12 02:00:04;;;;;;;51.07;25.87;;;;;;;;;;734151;189;920103;-67
2021/12/12 02:02:29;;;;;;;44.07;25.37;;;;;;;;;;734239;189;919144;-68
2021/12/12 02:04:56;;;;;;;43.00;23.30;;;;;;;;;;729050;189;919107;-67
2021/12/12 02:07:22;;;;;;;38.80;23.20;;;;;;;;;;727844;190;918781;-67
2021/12/12 02:09:48;;;;;;;49.78;27.23;;;;;;;;;;724063;191;919556;-67
2021/12/12 02:12:13;;;;;;;44.13;23.53;;;;;;;;;;729551;190;923653;-67
2021/12/12 02:14:39;;;;;;;44.60;27.60;;;;;;;;;;722720;189;919619;-67
2021/12/12 02:17:06;;;;;;;42.30;25.93;;;;;;;;;;727035;189;918162;-67
2021/12/12 02:19:44;;;;;;;49.53;27.60;;;;;;;;;;726226;189;918510;-67
2021/12/12 02:22:08;;;;;;;47.83;28.53;;;;;;;;;;725248;190;919910;-67
2021/12/12 02:37:18;;;;;;;46.53;27.20;;;;;;;;;;730513;189;920511;-67
2021/12/12 02:39:44;;;;;;;53.13;30.43;;;;;;;;;;735745;190;919656;-67
2021/12/12 02:42:10;;;;;;;57.63;31.00;;;;;;;;;;736180;189;1023376;-67
2021/12/12 02:44:36;;;;;;;51.60;31.40;;;;;;;;;;735154;189;919273;-67
2021/12/12 02:47:08;;;;;;;58.10;31.63;;;;;;;;;;726835;190;919343;-67
2021/12/12 02:51:59;;;;;;;55.57;31.20;;;;;;;;;;717911;193;919107;-67
2021/12/12 02:54:25;;;;;;;56.20;31.00;;;;;;;;;;717265;190;918628;-67
2021/12/12 02:56:51;;;;;;;50.70;30.67;;;;;;;;;;734751;189;920037;-67
2021/12/12 02:59:17;;;;;;;57.97;33.00;;;;;;;;;;731670;189;919651;-67
2021/12/12 03:01:43;;;;;;;61.87;33.93;;;;;;;;;;725263;188;919381;-67
2021/12/12 03:04:09;;;;;;;56.17;33.13;;;;;;;;;;726032;189;915102;-67
2021/12/12 03:06:35;;;;;;;66.53;34.07;;;;;;;;;;732873;186;919709;-67
2021/12/12 03:09:01;;;;;;;55.80;32.03;;;;;;;;;;729942;189;919086;-67
2021/12/12 03:11:27;;;;;;;63.63;32.70;;;;;;;;;;724892;189;919477;-67
2021/12/12 03:13:52;;;;;;;61.73;34.60;;;;;;;;;;737106;189;919149;-67
2021/12/12 03:16:18;;;;;;;60.93;32.40;;;;;;;;;;720452;189;919382;-67
2021/12/12 03:18:44;;;;;;;58.30;33.77;;;;;;;;;;728706;190;918675;-67
2021/12/12 03:21:15;;;;;;;59.37;32.03;;;;;;;;;;740900;189;921130;-68
2021/12/12 03:23:36;;;;;;;73.07;35.70;;;;;;;;;;728190;189;613719;-67
2021/12/12 03:26:03;;;;;;;68.77;33.40;;;;;;;;;;728098;189;630739;-67
2021/12/12 03:28:27;;;;;;;71.77;35.87;;;;;;;;;;734388;190;915954;-67
2021/12/12 03:30:53;;;;;;;57.83;35.08;;;;;;;;;;724490;190;915312;-67
2021/12/12 03:33:19;;;;;;;58.77;33.50;;;;;;;;;;732595;189;920720;-67
2021/12/12 03:35:45;;;;;;;61.67;33.80;;;;;;;;;;731212;189;919569;-65
2021/12/12 03:38:11;;;;;;;70.57;37.67;;;;;;;;;;724407;193;631572;-68
2021/12/12 03:40:37;;;;;;;65.90;35.80;;;;;;;;;;725801;189;914165;-67
2021/12/12 03:43:03;;;;;;;66.73;38.00;;;;;;;;;;722112;190;915169;-67
2021/12/12 03:45:29;;;;;;;61.77;37.00;;;;;;;;;;732739;189;625823;-68
2021/12/12 03:47:55;;;;;;;69.50;40.13;;;;;;;;;;731609;189;629173;-67
2021/12/12 03:50:21;;;;;;;71.50;35.80;;;;;;;;;;735047;190;625421;-67
2021/12/12 03:52:47;;;;;;;63.30;37.63;;;;;;;;;;728611;187;622011;-67
2021/12/12 03:55:13;;;;;;;58.93;35.07;;;;;;;;;;732172;189;916747;-67
2021/12/12 03:57:39;;;;;;;85.43;38.93;;;;;;;;;;721790;186;919214;-67
2021/12/12 04:00:06;;;;;;;69.35;35.95;;;;;;;;;;719413;190;919370;-65
2021/12/12 04:02:32;;;;;;;65.40;35.97;;;;;;;;;;738881;189;919263;-67
2021/12/12 04:04:58;;;;;;;66.83;37.20;;;;;;;;;;734607;189;917126;-67
2021/12/12 04:07:23;;;;;;;69.73;39.00;;;;;;;;;;722558;190;915405;-67
2021/12/12 04:09:49;;;;;;;63.70;38.07;;;;;;;;;;736560;187;915911;-66
2021/12/12 04:12:15;;;;;;;71.40;34.95;;;;;;;;;;732171;189;1021542;-67
2021/12/12 04:14:41;;;;;;;65.43;36.40;;;;;;;;;;728005;189;918507;-67
2021/12/12 04:17:07;;;;;;;64.27;38.03;;;;;;;;;;727409;189;916829;-68
2021/12/12 04:19:33;;;;;;;60.73;34.23;;;;;;;;;;725306;191;917716;-68
2021/12/12 04:21:59;;;;;;;70.63;34.87;;;;;;;;;;721416;189;914429;-67
2021/12/12 04:24:25;;;;;;;69.17;37.83;;;;;;;;;;724514;189;915357;-67
2021/12/12 04:26:51;;;;;;;74.07;36.30;;;;;;;;;;730672;189;911564;-67
2021/12/12 04:29:18;;;;;;;72.27;37.47;;;;;;;;;;721670;189;912603;-68
2021/12/12 04:31:44;;;;;;;72.97;36.90;;;;;;;;;;729940;186;1017870;-67
2021/12/12 04:34:10;;;;;;;65.10;35.07;;;;;;;;;;724504;190;915681;-67
2021/12/12 04:36:36;;;;;;;64.03;35.87;;;;;;;;;;730899;186;915800;-67
2021/12/12 04:39:03;;;;;;;53.83;30.92;;;;;;;;;;722654;190;916052;-68
2021/12/12 04:41:29;;;;;;;61.07;30.60;;;;;;;;;;734449;189;915872;-67
2021/12/12 04:43:54;;;;;;;66.10;33.70;;;;;;;;;;733366;189;916176;-68
2021/12/12 04:46:25;;;;;;;55.97;32.10;;;;;;;;;;731348;189;915608;-67
2021/12/12 04:51:18;;;;;;;63.43;34.13;;;;;;;;;;731813;187;918548;-67
2021/12/12 04:53:46;;;;;;;66.13;35.07;;;;;;;;;;713112;193;919605;-67
2021/12/12 04:56:27;;;;;;;64.30;31.05;;;;;;;;;;723533;189;1158142;-67
2021/12/12 04:58:53;;;;;;;60.90;33.20;;;;;;;;;;714688;194;924797;-68
2021/12/12 05:01:19;;;;;;;54.43;29.83;;;;;;;;;;726295;189;917035;-68
2021/12/12 05:03:49;;;;;;;54.43;29.43;;;;;;;;;;724890;190;916431;-67
2021/12/12 05:06:15;;;;;;;45.37;24.90;;;;;;;;;;731285;186;920376;-68
2021/12/12 05:08:42;;;;;;;47.00;27.20;;;;;;;;;;725647;192;914607;-68
2021/12/12 05:11:08;;;;;;;41.13;20.27;;;;;;;;;;723829;190;910635;-68
2021/12/12 05:13:37;;;;;;;32.50;17.93;;;;;;;;;;723746;190;911859;-68
2021/12/12 05:16:17;;;;;;;40.33;19.27;;;;;;;;;;717457;189;913702;-67
2021/12/12 05:18:48;;;;;;;37.80;19.83;;;;;;;;;;725739;190;924273;-67
2021/12/12 05:21:09;;;;;;;32.80;17.27;;;;;;;;;;723904;189;915808;-67
2021/12/12 05:23:35;;;;;;;27.10;15.90;;;;;;;;;;723592;189;916558;-67
2021/12/12 05:26:01;;;;;;;38.70;20.60;;;;;;;;;;724432;189;916705;-67
2021/12/12 05:28:26;;;;;;;31.70;17.30;;;;;;;;;;723937;189;919500;-66
2021/12/12 05:30:52;;;;;;;34.17;17.80;;;;;;;;;;736065;189;919379;-67
2021/12/12 05:33:18;;;;;;;25.90;14.93;;;;;;;;;;729073;189;1035229;-67
2021/12/12 05:35:44;;;;;;;29.60;16.53;;;;;;;;;;719920;189;1018818;-67
2021/12/12 05:38:10;;;;;;;27.70;15.00;;;;;;;;;;738663;189;917867;-67
2021/12/12 05:40:36;;;;;;;28.60;16.60;;;;;;;;;;732329;189;920896;-68
2021/12/12 05:43:02;;;;;;;24.67;13.60;;;;;;;;;;733299;189;929386;-67
2021/12/12 05:45:27;;;;;;;30.97;15.83;;;;;;;;;;732587;189;920396;-67
2021/12/12 05:47:55;;;;;;;28.60;15.93;;;;;;;;;;726827;189;978138;-67
2021/12/12 05:50:21;;;;;;;33.73;17.00;;;;;;;;;;726123;189;920616;-67
2021/12/12 05:52:47;;;;;;;30.10;17.17;;;;;;;;;;721963;189;939449;-66
2021/12/12 05:55:12;;;;;;;29.70;16.07;;;;;;;;;;723817;189;920617;-67
2021/12/12 05:57:38;;;;;;;26.87;17.67;;;;;;;;;;730365;189;1022789;-67
2021/12/12 06:00:05;;;;;;;23.57;15.50;;;;;;;;;;717251;190;920631;-67
2021/12/12 06:02:31;;;;;;;27.20;16.40;;;;;;;;;;725145;190;919023;-67
2021/12/12 06:04:56;;;;;;;32.53;18.90;;;;;;;;;;738692;189;635474;-68
2021/12/12 06:07:22;;;;;;;33.93;20.50;;;;;;;;;;725383;189;898927;-67
2021/12/12 06:09:48;;;;;;;39.30;23.17;;;;;;;;;;724982;189;917511;-67
2021/12/12 06:12:14;;;;;;;50.17;29.50;;;;;;;;;;725822;189;921293;-68
2021/12/12 06:14:40;;;;;;;65.95;35.80;;;;;;;;;;723754;189;920449;-68
2021/12/12 06:17:06;;;;;;;68.05;36.92;;;;;;;;;;726422;189;916608;-66
2021/12/12 06:19:32;;;;;;;55.65;29.80;;;;;;;;;;724037;189;1737050;-67
2021/12/12 06:21:58;;;;;;;53.70;28.50;;;;;;;;;;723744;189;958891;-67
2021/12/12 06:24:24;;;;;;;47.57;25.33;;;;;;;;;;721551;189;956443;-67
2021/12/12 06:26:50;;;;;;;50.30;25.40;;;;;;;;;;726071;189;919210;-68
2021/12/12 06:29:16;;;;;;;47.47;25.10;;;;;;;;;;735463;189;916646;-68
2021/12/12 06:31:42;;;;;;;26.80;16.57;;;;;;;;;;721344;190;917671;-68
2021/12/12 06:34:08;;;;;;;29.73;18.17;;;;;;;;;;730734;189;920087;-68
2021/12/12 06:36:34;;;;;;;31.70;18.73;;;;;;;;;;725601;189;916396;-67
2021/12/12 06:38:59;;;;;;;48.77;23.27;;;;;;;;;;724864;189;916727;-67
2021/12/12 06:41:25;;;;;;;37.73;19.33;;;;;;;;;;734177;189;920208;-67
2021/12/12 06:43:51;;;;;;;40.77;23.40;;;;;;;;;;722636;189;919065;-69
2021/12/12 06:46:17;;;;;;;47.60;24.80;;;;;;;;;;724793;189;920853;-67
2021/12/12 06:48:43;;;;;;;35.90;20.70;;;;;;;;;;727526;189;916634;-67
2021/12/12 06:51:09;;;;;;;38.37;21.03;;;;;;;;;;733035;187;919988;-67
2021/12/12 06:53:34;;;;;;;43.47;23.27;;;;;;;;;;726517;189;920664;-67
2021/12/12 06:56:02;;;;;;;43.87;23.57;;;;;;;;;;719907;190;920555;-67
2021/12/12 06:58:26;;;;;;;42.60;23.07;;;;;;;;;;736284;189;928871;-67
2021/12/12 07:00:52;;;;;;;45.97;26.57;;;;;;;;;;724299;189;918848;-67
2021/12/12 07:03:18;;;;;;;42.30;24.57;;;;;;;;;;719450;189;920724;-68
2021/12/12 07:05:44;;;;;;;45.60;25.33;;;;;;;;;;731291;189;918347;-67
2021/12/12 07:08:10;;;;;;;42.60;23.93;;;;;;;;;;722729;189;919456;-67
2021/12/12 07:10:35;;;;;;;38.17;23.58;;;;;;;;;;721757;189;1018465;-67
2021/12/12 07:13:02;;;;;;;41.77;22.30;;;;;;;;;;721349;189;919583;-67
2021/12/12 07:15:27;;;;;;;23.07;12.33;;;;;;;;;;731548;189;919375;-67
2021/12/12 07:17:54;;;;;;;23.27;11.00;;;;;;;;;;718520;193;919689;-67
2021/12/12 07:20:20;;;;;;;16.50;11.07;;;;;;;;;;703274;196;937183;-67
2021/12/12 07:22:46;;;;;;;18.13;10.80;;;;;;;;;;724759;189;919684;-67
2021/12/12 07:25:12;;;;;;;21.00;10.73;;;;;;;;;;726054;189;919337;-67
2021/12/12 07:27:38;;;;;;;18.50;9.97;;;;;;;;;;723767;189;919520;-67
2021/12/12 07:30:04;;;;;;;32.33;18.87;;;;;;;;;;727904;189;918336;-67
2021/12/12 07:32:30;;;;;;;25.83;14.40;;;;;;;;;;721516;190;921615;-67
2021/12/12 07:34:56;;;;;;;25.65;14.57;;;;;;;;;;726180;189;919296;-68
2021/12/12 07:37:21;;;;;;;26.97;16.77;;;;;;;;;;726035;187;945799;-69
2021/12/12 07:39:47;;;;;;;30.37;19.50;;;;;;;;;;734411;189;920382;-67
2021/12/12 07:42:13;;;;;;;33.40;21.13;;;;;;;;;;719120;193;920336;-68
2021/12/12 07:44:40;;;;;;;32.03;17.43;;;;;;;;;;723648;188;919905;-67
2021/12/12 07:47:06;;;;;;;25.60;15.13;;;;;;;;;;737408;187;924415;-68
2021/12/12 07:49:32;;;;;;;23.37;13.97;;;;;;;;;;725016;189;920143;-68
2021/12/12 07:51:57;;;;;;;37.77;22.17;;;;;;;;;;728913;189;1020596;-69
2021/12/12 07:54:23;;;;;;;57.33;30.70;;;;;;;;;;730444;189;918938;-67
2021/12/12 07:56:49;;;;;;;46.70;29.43;;;;;;;;;;730548;189;919015;-67
2021/12/12 07:59:15;;;;;;;36.87;22.97;;;;;;;;;;725331;189;919936;-67
2021/12/12 08:01:42;;;;;;;35.60;20.40;;;;;;;;;;727274;191;921039;-67
2021/12/12 08:04:08;;;;;;;27.67;16.50;;;;;;;;;;726765;189;918979;-67
2021/12/12 08:06:34;;;;;;;23.90;15.13;;;;;;;;;;726920;189;921182;-67
2021/12/12 08:09:00;;;;;;;27.60;17.77;;;;;;;;;;729026;189;921925;-67
2021/12/12 08:11:26;;;;;;;39.67;24.27;;;;;;;;;;731681;189;920959;-67
2021/12/12 08:13:51;;;;;;;74.93;38.67;;;;;;;;;;724805;189;919045;-67
2021/12/12 08:16:17;;;;;;;92.87;52.20;;;;;;;;;;726415;189;911756;-67
2021/12/12 08:18:44;;;;;;;62.30;38.30;;;;;;;;;;730150;189;910530;-67
2021/12/12 08:21:09;;;;;;;44.90;25.10;;;;;;;;;;728795;189;913546;-67
2021/12/12 08:23:35;;;;;;;33.30;18.90;;;;;;;;;;721449;189;914611;-67
2021/12/12 08:26:02;;;;;;;26.77;16.57;;;;;;;;;;730399;189;919083;-66
2021/12/12 08:28:27;;;;;;;32.73;16.93;;;;;;;;;;720109;189;919824;-67
2021/12/12 08:30:52;;;;;;;32.47;17.43;;;;;;;;;;713775;193;920445;-67
2021/12/12 08:33:18;;;;;;;25.47;15.20;;;;;;;;;;729049;189;918507;-66
2021/12/12 08:35:44;;;;;;;29.10;16.40;;;;;;;;;;735972;191;615009;-67
2021/12/12 08:38:10;;;;;;;30.63;17.30;;;;;;;;;;730970;189;920724;-67
2021/12/12 08:40:36;;;;;;;45.53;25.50;;;;;;;;;;733216;189;1020714;-67
2021/12/12 08:43:02;;;;;;;69.13;38.27;;;;;;;;;;729425;189;1004765;-67
2021/12/12 08:45:28;;;;;;;65.70;35.67;;;;;;;;;;723763;189;919120;-66
2021/12/12 08:47:54;;;;;;;161.53;93.50;;;;;;;;;;730575;186;617082;-66
2021/12/12 08:50:19;;;;;;;66.50;37.00;;;;;;;;;;731376;189;630349;-66
2021/12/12 08:52:47;;;;;;;65.43;38.17;;;;;;;;;;728179;188;624794;-67
2021/12/12 08:55:15;;;;;;;70.57;41.53;;;;;;;;;;730801;189;617034;-67
2021/12/12 08:57:46;;;;;;;64.73;38.73;;;;;;;;;;731679;189;624103;-65
2021/12/12 09:00:04;;;;;;;59.60;34.67;;;;;;;;;;730076;192;623512;-67
2021/12/12 09:02:30;;;;;;;73.80;42.50;;;;;;;;;;730744;189;674767;-67
2021/12/12 09:04:56;;;;;;;73.23;41.20;;;;;;;;;;734589;189;648790;-68
2021/12/12 09:07:22;;;;;;;85.50;43.47;;;;;;;;;;733236;189;619381;-67
2021/12/12 09:09:50;;;;;;;68.73;36.40;;;;;;;;;;728795;189;634982;-67
2021/12/12 09:12:16;;;;;;;66.23;36.93;;;;;;;;;;728754;189;628582;-66
2021/12/12 09:14:42;;;;;;;65.10;33.60;;;;;;;;;;729205;190;624275;-66
2021/12/12 09:17:10;;;;;;;51.00;30.97;;;;;;;;;;733178;189;629515;-67
2021/12/12 09:19:38;;;;;;;69.50;36.13;;;;;;;;;;720384;193;632583;-67
2021/12/12 09:22:08;;;;;;;64.80;35.33;;;;;;;;;;732972;186;630719;-65
2021/12/12 09:24:44;;;;;;;69.93;37.30;;;;;;;;;;734152;189;627405;-66
2021/12/12 09:27:05;;;;;;;98.10;51.50;;;;;;;;;;729723;189;625098;-67
2021/12/12 09:29:32;;;;;;;62.10;39.20;;;;;;;;;;733500;189;629510;-67
2021/12/12 09:31:59;;;;;;;63.73;35.73;;;;;;;;;;723367;190;629777;-65
2021/12/12 09:34:25;;;;;;;77.57;40.87;;;;;;;;;;730108;190;615647;-67
2021/12/12 09:36:51;;;;;;;169.70;72.33;;;;;;;;;;736493;187;635302;-67
2021/12/12 09:39:18;;;;;;;151.37;69.77;;;;;;;;;;730966;189;632727;-67
2021/12/12 09:41:45;;;;;;;86.80;45.33;;;;;;;;;;726332;189;647128;-67
2021/12/12 09:44:15;;;;;;;254.63;104.40;;;;;;;;;;738398;187;620288;-67
2021/12/12 09:47:12;;;;;;;230.57;95.50;;;;;;;;;;731770;186;634337;-66
2021/12/12 09:52:29;;;;;;;91.97;44.30;;;;;;;;;;727477;189;693365;-66
2021/12/12 09:55:01;;;;;;;105.00;49.03;;;;;;;;;;716412;190;701563;-67
2021/12/12 09:57:27;;;;;;;46.27;23.30;;;;;;;;;;732735;189;668342;-67
2021/12/12 09:59:55;;;;;;;50.80;25.87;;;;;;;;;;728932;190;633267;-67
2021/12/12 10:02:32;;;;;;;55.07;28.80;;;;;;;;;;730870;189;623846;-67
2021/12/12 10:05:04;;;;;;;58.47;32.93;;;;;;;;;;736424;189;872811;-66
2021/12/12 10:07:35;;;;;;;93.77;46.63;;;;;;;;;;728534;189;768738;-67
2021/12/12 10:10:01;;;;;;;42.60;23.90;;;;;;;;;;732967;189;636534;-67
2021/12/12 10:12:28;;;;;;;52.50;30.27;;;;;;;;;;728634;186;643509;-67
2021/12/12 10:15:05;;;;;;;50.13;27.60;;;;;;;;;;733281;189;630378;-67
2021/12/12 10:17:31;;;;;;;41.53;22.47;;;;;;;;;;736643;189;613185;-67
2021/12/12 10:19:58;;;;;;;37.50;21.97;;;;;;;;;;730257;189;630277;-67
2021/12/12 10:22:26;;;;;;;30.30;19.50;;;;;;;;;;727377;189;633743;-67
2021/12/12 10:24:52;;;;;;;33.17;19.80;;;;;;;;;;733582;189;622036;-68
2021/12/12 10:27:18;;;;;;;37.50;20.10;;;;;;;;;;729264;190;629208;-67
2021/12/12 10:29:48;;;;;;;32.93;20.73;;;;;;;;;;729111;190;623523;-67
2021/12/12 10:32:13;;;;;;;37.47;19.23;;;;;;;;;;730328;189;627258;-67
2021/12/12 10:34:41;;;;;;;36.30;20.97;;;;;;;;;;733189;189;624134;-68
2021/12/12 10:37:07;;;;;;;38.80;22.07;;;;;;;;;;728183;189;633258;-67
2021/12/12 10:39:32;;;;;;;37.23;20.57;;;;;;;;;;728124;189;646189;-67
2021/12/12 10:41:59;;;;;;;30.80;19.30;;;;;;;;;;731604;189;627439;-68
2021/12/12 10:44:26;;;;;;;36.27;21.83;;;;;;;;;;730640;189;620280;-67
2021/12/12 10:46:52;;;;;;;32.27;19.00;;;;;;;;;;728896;189;639927;-67
2021/12/12 10:49:23;;;;;;;28.90;18.77;;;;;;;;;;729501;189;617503;-67
2021/12/12 10:51:48;;;;;;;58.83;35.70;;;;;;;;;;724196;189;871625;-68
2021/12/12 10:54:14;;;;;;;50.17;28.33;;;;;;;;;;717250;193;918865;-68
2021/12/12 10:56:40;;;;;;;49.40;28.20;;;;;;;;;;721995;189;916837;-68
2021/12/12 10:59:21;;;;;;;45.00;27.30;;;;;;;;;;731463;189;637758;-67
2021/12/12 11:01:47;;;;;;;35.43;17.43;;;;;;;;;;734646;189;617294;-67
2021/12/12 11:04:15;;;;;;;29.90;16.63;;;;;;;;;;732379;189;630255;-68
2021/12/12 11:06:39;;;;;;;27.70;16.90;;;;;;;;;;730670;189;632235;-68
2021/12/12 11:09:06;;;;;;;26.90;16.10;;;;;;;;;;731414;189;634963;-68
2021/12/12 11:11:32;;;;;;;33.03;20.47;;;;;;;;;;728110;189;634193;-69
2021/12/12 11:14:01;;;;;;;31.13;21.27;;;;;;;;;;732834;189;630419;-70
2021/12/12 11:16:30;;;;;;;33.07;19.77;;;;;;;;;;722475;189;637837;-69
2021/12/12 11:18:58;;;;;;;28.43;19.10;;;;;;;;;;729011;189;675515;-69
2021/12/12 11:21:26;;;;;;;35.13;19.43;;;;;;;;;;729914;189;617445;-71
2021/12/12 11:23:52;;;;;;;42.80;23.80;;;;;;;;;;728332;189;617249;-71
2021/12/12 11:26:18;;;;;;;45.40;26.70;;;;;;;;;;724133;189;623836;-71
2021/12/12 11:28:46;;;;;;;40.57;22.27;;;;;;;;;;730664;191;631686;-70
2021/12/12 11:31:12;;;;;;;25.23;15.10;;;;;;;;;;727359;189;625174;-72
2021/12/12 11:33:37;;;;;;;33.97;19.27;;;;;;;;;;725184;189;628797;-72
2021/12/12 11:36:02;;;;;;;39.90;20.40;;;;;;;;;;731357;189;634108;-71
2021/12/12 11:38:46;;;;;;;25.33;16.30;;;;;;;;;;724639;189;632411;-72
2021/12/12 11:41:11;;;;;;;29.27;17.97;;;;;;;;;;724200;189;616896;-72
2021/12/12 11:43:41;;;;;;;38.47;20.17;;;;;;;;;;719006;190;917351;-73
2021/12/12 11:46:10;;;;;;;30.67;18.87;;;;;;;;;;729433;190;916563;-71
2021/12/12 11:48:39;;;;;;;32.03;20.30;;;;;;;;;;732813;189;921319;-74
2021/12/12 11:51:06;;;;;;;28.43;17.83;;;;;;;;;;731689;189;918837;-74
2021/12/12 11:53:37;;;;;;;37.92;17.95;;;;;;;;;;729419;189;917328;-73
2021/12/12 11:56:13;;;;;;;40.90;21.20;;;;;;;;;;725866;190;950751;-73
2021/12/12 11:58:40;;;;;;;55.37;30.33;;;;;;;;;;730829;190;915510;-74
2021/12/12 12:01:24;;;;;;;47.60;25.43;;;;;;;;;;722465;189;1050494;-75
2021/12/12 12:03:56;;;;;;;31.70;17.90;;;;;;;;;;730868;189;1019331;-76
2021/12/12 12:06:23;;;;;;;28.93;18.10;;;;;;;;;;730755;189;920927;-75
2021/12/12 12:08:52;;;;;;;35.00;19.20;;;;;;;;;;723166;189;921528;-73
2021/12/12 12:11:24;;;;;;;42.83;19.50;;;;;;;;;;724854;189;1024448;-75
2021/12/12 12:13:53;;;;;;;34.13;19.10;;;;;;;;;;738164;189;636363;-76
2021/12/12 12:16:23;;;;;;;49.67;28.80;;;;;;;;;;717347;193;661300;-76
2021/12/12 12:18:49;;;;;;;41.50;23.57;;;;;;;;;;730713;189;898929;-78
2021/12/12 12:21:17;;;;;;;37.50;21.57;;;;;;;;;;727646;189;815460;-77
2021/12/12 12:24:10;;;;;;;42.13;26.00;;;;;;;;;;730095;189;917952;-78
2021/12/12 12:28:49;;;;;;;37.97;23.77;;;;;;;;;;733671;189;718164;-78
2021/12/12 12:31:20;;;;;;;33.17;19.77;;;;;;;;;;729912;185;724542;-77
2021/12/12 12:33:52;;;;;;;36.47;19.30;;;;;;;;;;726480;189;1044847;-78
2021/12/12 12:36:35;;;;;;;35.33;21.47;;;;;;;;;;740191;189;623264;-78
2021/12/12 12:39:21;;;;;;;33.10;18.43;;;;;;;;;;724222;189;911104;-78
2021/12/12 12:41:52;;;;;;;40.87;18.70;;;;;;;;;;731621;189;908692;-77
2021/12/12 12:44:35;;;;;;;32.03;18.67;;;;;;;;;;731453;189;911576;-78
2021/12/12 12:47:07;;;;;;;31.60;19.17;;;;;;;;;;716593;190;918268;-78
2021/12/12 12:49:39;;;;;;;36.10;21.80;;;;;;;;;;726662;190;1018678;-78
2021/12/12 12:52:10;;;;;;;38.47;21.63;;;;;;;;;;724544;190;920548;-78
2021/12/12 12:54:38;;;;;;;31.80;18.77;;;;;;;;;;730975;189;920879;-77
2021/12/12 12:57:07;;;;;;;30.53;17.40;;;;;;;;;;731501;189;914310;-77
2021/12/12 12:59:36;;;;;;;35.23;19.03;;;;;;;;;;725436;189;1017661;-79
2021/12/12 13:02:00;;;;;;;30.73;18.83;;;;;;;;;;722192;190;915662;-79
2021/12/12 13:04:27;;;;;;;27.23;16.55;;;;;;;;;;728342;189;949639;-78
2021/12/12 13:06:59;;;;;;;34.67;16.70;;;;;;;;;;724905;189;1021026;-79
2021/12/12 13:09:25;;;;;;;31.73;21.17;;;;;;;;;;723225;190;1018108;-79
2021/12/12 13:12:06;;;;;;;42.77;27.80;;;;;;;;;;724145;186;1047987;-80
2021/12/12 13:14:36;;;;;;;43.57;26.03;;;;;;;;;;725041;189;915951;-78
2021/12/12 13:17:02;;;;;;;78.43;38.30;;;;;;;;;;726523;189;915408;-79
2021/12/12 13:19:31;;;;;;;37.00;24.05;;;;;;;;;;724919;189;1017493;-79
2021/12/12 13:22:02;;;;;;;33.28;20.50;;;;;;;;;;719696;191;1017907;-79
2021/12/12 13:24:40;;;;;;;37.30;22.20;;;;;;;;;;721128;189;915255;-79
2021/12/12 13:27:17;;;;;;;38.83;26.63;;;;;;;;;;730252;190;915855;-79
2021/12/12 13:29:34;;;;;;;32.80;21.73;;;;;;;;;;729805;191;1016814;-79
2021/12/12 13:32:02;;;;;;;35.30;20.65;;;;;;;;;;728070;190;918381;-79
2021/12/12 13:34:27;;;;;;;33.03;19.03;;;;;;;;;;723631;190;1106859;-79
2021/12/12 13:36:58;;;;;;;29.43;20.00;;;;;;;;;;727121;189;1022486;-79
2021/12/12 13:39:24;;;;;;;38.03;23.63;;;;;;;;;;734066;189;920192;-79
2021/12/12 13:41:52;;;;;;;40.03;23.90;;;;;;;;;;732858;189;1023700;-79
2021/12/12 13:44:17;;;;;;;39.03;20.80;;;;;;;;;;728916;189;920385;-78
2021/12/12 13:46:43;;;;;;;39.60;24.37;;;;;;;;;;730452;189;915769;-79
2021/12/12 13:49:13;;;;;;;42.47;23.03;;;;;;;;;;727780;189;918482;-78
2021/12/12 13:51:44;;;;;;;43.33;23.83;;;;;;;;;;728127;189;1022365;-78
2021/12/12 13:54:12;;;;;;;43.30;29.27;;;;;;;;;;729991;189;929760;-78
2021/12/12 13:56:38;;;;;;;46.03;25.07;;;;;;;;;;729666;189;918454;-78
2021/12/12 13:59:14;;;;;;;35.07;21.17;;;;;;;;;;730343;189;714315;-78
2021/12/12 14:01:40;;;;;;;32.93;20.73;;;;;;;;;;725358;189;919241;-78
2021/12/12 14:04:08;;;;;;;29.33;16.95;;;;;;;;;;727551;190;918721;-78
2021/12/12 14:06:34;;;;;;;29.43;17.90;;;;;;;;;;730211;186;914616;-78
2021/12/12 14:08:59;;;;;;;28.10;16.13;;;;;;;;;;725869;189;1020800;-78
2021/12/12 14:11:26;;;;;;;24.60;16.70;;;;;;;;;;729811;189;632844;-78
2021/12/12 14:13:52;;;;;;;29.77;17.30;;;;;;;;;;728740;189;919375;-78
2021/12/12 14:16:22;;;;;;;26.57;16.50;;;;;;;;;;726847;189;1018736;-78
2021/12/12 14:18:46;;;;;;;31.17;16.13;;;;;;;;;;722747;189;916992;-79
2021/12/12 14:21:12;;;;;;;30.92;15.85;;;;;;;;;;721636;189;940920;-78
2021/12/12 14:23:38;;;;;;;32.77;17.87;;;;;;;;;;728532;189;948809;-79
2021/12/12 14:26:05;;;;;;;33.77;16.47;;;;;;;;;;724062;189;1029291;-78
2021/12/12 14:28:30;;;;;;;30.23;16.23;;;;;;;;;;724860;189;920377;-79